Ana Sayfa
METAR-TAF:

METAR-TAF

Havaalanları :

Bowers Field

Ellensburg, Washington, Amerika Birleşik Devletleri

Enlem: 47-02-01N, Boylam: 120-31-45W, yükseklik: 536 m

Güncel hava durumu gözlemi

Rapor saat 10:53 UTC de 1 saat ve 7 dakika önce yapıldı.
Rüzgar güneydan 4 kt
Sıcaklık -1°C
Nem 86%
Basınç 1015 hPa
Görüş mesafesi: 0.4 km
Donan sis

METAR: KELN 221053Z AUTO 18004KT 1/4SM FZFG VV001 M01/M03 A2997 RMK AO2 SLP161 I1001 T10111028

Saat: 04:00 (12:00 UTC)


TAF: eksik

4.000'den fazla havaalanı için hava durumu gözlemleri ve tahminleri (METAR ve TAF raporları).

Kullanılabilir istasyonlar harita üzerinde sarı ve kırmızı noktalarla gösterilir.

İstasyonun adını görmek için fareyi noktanın üzerinde gezdirin.

Sonrasında hava gözlem ve tahminlerini görmek için tıklayın.

Haritayı değiştirmek için: yaklaştırmak için siyah artı işaretli yeşil düğmeye ve uzaklaştırmak için de eksi işaretli düğmeye hızla tıklayın; bitişik haritalar için yeşil okları kullanın.


METAR-TAF: